Lebanon, Illinois
Current Conditions -  °F | °C
As of 4:58 PM on Tuesday 21 Oct 2014 (Local Time) from KBLV Reporting Station
Clear Clear  
Wind Chill: 66°   Ceiling: Unl
Heat Index: 66°   Visibility: 10mi
Dew Point: 44°   Wind: 8mph
Humidity: 46%   Direction: 10°N
Pressure: 30.11"   Gusts: NA
Location:  38.6°N, 89.81°W
Report Text: KBLV 212158Z AUTO 01007KT 10SM CLR 19/07 A3011 RMK AO2 SLP199 T01880068
Loading
Personal Weather Stations






























Interactive Weather Map
Tropical Storm Tracking
New forecast layout! Learn more

10-Day Weather Forecast

Advertisements
Track Severe Weather on mobile